Terminal Aerodrome Forecast
Issued by NWS

Home | Current Version | Previous Version | Text Only | Print | Product List | Glossary Off
Versions: 1 2 3 4 5 6 7 8 9 10 11 12 13 14 15 16 17 18 19 20

317
FTUS43 KABR 230940 AAB
TAFMBG
TAF AMD
KMBG 230940Z 2310/2406 09021G28KT P6SM SCT100 OVC200
     FM240200 07016G24KT P6SM BKN200=

USA.gov is the U.S. government's official web portal to all federal, state and local government web resources and services.